createdAt,value
2018-06-16T00:00:20.129Z,19.10
2018-06-16T00:02:49.695Z,19.09
2018-06-16T00:05:19.106Z,19.08
2018-06-16T00:07:48.454Z,19.08
2018-06-16T00:10:17.811Z,19.09
2018-06-16T00:12:47.136Z,19.08
2018-06-16T00:15:16.652Z,19.08
2018-06-16T00:17:46.125Z,19.08
2018-06-16T00:20:16.113Z,19.04
2018-06-16T00:22:45.522Z,19.00
2018-06-16T00:25:14.990Z,18.98
2018-06-16T00:27:44.987Z,18.95
2018-06-16T00:30:14.569Z,18.94
2018-06-16T00:32:43.914Z,18.93
2018-06-16T00:35:13.655Z,18.94
2018-06-16T00:37:43.484Z,18.92
2018-06-16T00:40:12.822Z,18.91
2018-06-16T00:42:42.233Z,18.90
2018-06-16T00:45:11.652Z,18.90
2018-06-16T00:47:41.000Z,18.90
2018-06-16T00:50:10.309Z,18.88
2018-06-16T00:52:39.662Z,18.88
2018-06-16T00:55:09.525Z,18.86
2018-06-16T00:57:51.976Z,18.85
2018-06-16T01:00:21.789Z,18.85
2018-06-16T01:02:51.150Z,18.84
2018-06-16T01:05:20.472Z,18.84
2018-06-16T01:07:50.444Z,18.84
2018-06-16T01:10:19.913Z,18.82
2018-06-16T01:12:49.457Z,18.82
2018-06-16T01:15:18.802Z,18.81
2018-06-16T01:17:48.209Z,18.81
2018-06-16T01:20:17.675Z,18.81
2018-06-16T01:22:47.028Z,18.80
2018-06-16T01:25:16.485Z,18.79
2018-06-16T01:27:45.881Z,18.79
2018-06-16T01:30:15.184Z,18.78
2018-06-16T01:32:44.612Z,18.78
2018-06-16T01:35:13.919Z,18.77
2018-06-16T01:37:43.772Z,18.76
2018-06-16T01:40:13.280Z,18.77
2018-06-16T01:42:42.648Z,18.75
2018-06-16T01:45:12.744Z,18.76
2018-06-16T01:47:42.084Z,18.75
2018-06-16T01:50:11.470Z,18.74
2018-06-16T01:52:41.637Z,18.73
2018-06-16T01:55:11.029Z,18.72
2018-06-16T01:57:40.440Z,18.72
2018-06-16T02:00:09.883Z,18.71
2018-06-16T02:02:39.365Z,18.70
2018-06-16T02:05:08.581Z,18.68
2018-06-16T02:07:38.132Z,18.67
2018-06-16T02:10:07.530Z,18.66
2018-06-16T02:12:36.965Z,18.66
2018-06-16T02:15:06.676Z,18.64
2018-06-16T02:17:36.093Z,18.64
2018-06-16T02:20:05.926Z,18.61
2018-06-16T02:22:36.120Z,18.60
2018-06-16T02:25:05.495Z,18.59
2018-06-16T02:27:35.199Z,18.58
2018-06-16T02:30:04.557Z,18.56
2018-06-16T02:32:34.035Z,18.55
2018-06-16T02:35:03.800Z,18.54
2018-06-16T02:37:33.421Z,18.53
2018-06-16T02:40:03.012Z,18.52
2018-06-16T02:42:32.448Z,18.51
2018-06-16T02:45:02.026Z,18.51
2018-06-16T02:47:31.380Z,18.50
2018-06-16T02:50:00.906Z,18.49
2018-06-16T02:52:30.347Z,18.48
2018-06-16T02:54:59.893Z,18.48
2018-06-16T02:57:29.741Z,18.47
2018-06-16T02:59:59.222Z,18.46
2018-06-16T03:02:28.677Z,18.45
2018-06-16T03:04:58.173Z,18.44
2018-06-16T03:07:28.223Z,18.44
2018-06-16T03:09:57.797Z,18.42
2018-06-16T03:12:27.393Z,18.43
2018-06-16T03:14:56.901Z,18.41
2018-06-16T03:17:26.372Z,18.41
2018-06-16T03:19:57.273Z,18.40
2018-06-16T03:22:27.213Z,18.39
2018-06-16T03:24:57.125Z,18.40
2018-06-16T03:27:26.677Z,18.39
2018-06-16T03:29:56.286Z,18.38
2018-06-16T03:32:25.701Z,18.37
2018-06-16T03:34:55.228Z,18.37
2018-06-16T03:37:24.723Z,18.36
2018-06-16T03:39:54.338Z,18.37
2018-06-16T03:42:23.800Z,18.36
2018-06-16T03:44:53.713Z,18.36
2018-06-16T03:47:23.157Z,18.35
2018-06-16T03:49:52.827Z,18.35
2018-06-16T03:52:22.924Z,18.33
2018-06-16T03:54:52.746Z,18.34
2018-06-16T03:57:22.290Z,18.33
2018-06-16T03:59:51.863Z,18.33
2018-06-16T04:02:21.662Z,18.33
2018-06-16T04:04:51.400Z,18.32
2018-06-16T04:07:21.156Z,18.32
2018-06-16T04:09:51.037Z,18.32
2018-06-16T04:12:20.728Z,18.31
2018-06-16T04:14:50.100Z,18.32
2018-06-16T04:17:20.753Z,18.32
2018-06-16T04:19:52.426Z,18.32
2018-06-16T04:22:22.352Z,18.31
2018-06-16T04:24:51.935Z,18.31
2018-06-16T04:27:21.440Z,18.31
2018-06-16T04:29:50.797Z,18.32
2018-06-16T04:32:20.257Z,18.31
2018-06-16T04:34:49.748Z,18.31
2018-06-16T04:37:19.270Z,18.31
2018-06-16T04:39:48.961Z,18.32
2018-06-16T04:42:18.288Z,18.33
2018-06-16T04:44:47.724Z,18.31
2018-06-16T04:47:17.895Z,18.32
2018-06-16T04:49:47.413Z,18.32
2018-06-16T04:52:16.981Z,18.33
2018-06-16T04:54:46.357Z,18.32
2018-06-16T04:57:15.837Z,18.32
2018-06-16T04:59:45.468Z,18.33
2018-06-16T05:02:15.365Z,18.33
2018-06-16T05:04:44.922Z,18.35
2018-06-16T05:07:14.289Z,18.35
2018-06-16T05:09:44.096Z,18.36
2018-06-16T05:12:13.537Z,18.36
2018-06-16T05:14:43.079Z,18.38
2018-06-16T05:17:12.959Z,18.36
2018-06-16T05:19:42.834Z,18.37
2018-06-16T05:22:12.431Z,18.39
2018-06-16T05:24:42.191Z,18.38
2018-06-16T05:27:11.685Z,18.38
2018-06-16T05:29:41.304Z,18.39
2018-06-16T05:32:10.899Z,18.40
2018-06-16T05:34:41.479Z,18.40
2018-06-16T05:37:11.272Z,18.41
2018-06-16T05:39:40.741Z,18.41
2018-06-16T05:42:10.180Z,18.41
2018-06-16T05:44:39.592Z,18.41
2018-06-16T05:47:09.232Z,18.42
2018-06-16T05:49:39.231Z,18.43
2018-06-16T05:52:08.752Z,18.43
2018-06-16T05:54:38.133Z,18.43
2018-06-16T05:57:07.764Z,18.44
2018-06-16T05:59:37.172Z,18.44
2018-06-16T06:02:06.656Z,18.44
2018-06-16T06:04:36.726Z,18.46
2018-06-16T06:07:06.312Z,18.45
2018-06-16T06:14:14.757Z,18.49
2018-06-16T06:16:44.325Z,18.49
2018-06-16T06:19:16.153Z,18.49
2018-06-16T06:21:46.280Z,18.50
2018-06-16T06:24:16.108Z,18.62
2018-06-16T06:26:45.674Z,18.69
2018-06-16T06:29:15.392Z,18.71
2018-06-16T06:31:45.216Z,18.73
2018-06-16T06:34:14.765Z,18.74
2018-06-16T06:36:44.151Z,18.76
2018-06-16T06:39:13.859Z,18.78
2018-06-16T06:41:43.996Z,18.79
2018-06-16T06:44:13.490Z,18.81
2018-06-16T06:46:43.051Z,18.81
2018-06-16T06:49:12.597Z,18.83
2018-06-16T06:51:42.726Z,18.86
2018-06-16T06:54:12.467Z,18.86
2018-06-16T06:56:41.845Z,18.87
2018-06-16T06:59:11.215Z,18.90
2018-06-16T07:01:41.160Z,18.90
2018-06-16T07:04:10.664Z,18.91
2018-06-16T07:06:40.243Z,18.92
2018-06-16T07:09:11.135Z,18.94
2018-06-16T07:11:40.843Z,18.93
2018-06-16T07:14:10.602Z,18.93
2018-06-16T07:16:39.993Z,18.95
2018-06-16T07:19:10.568Z,18.95
2018-06-16T07:21:40.535Z,18.95
2018-06-16T07:24:09.977Z,18.96
2018-06-16T07:26:39.904Z,18.96
2018-06-16T07:29:09.339Z,18.97
2018-06-16T07:31:38.838Z,18.96
2018-06-16T07:34:08.597Z,18.97
2018-06-16T07:36:38.032Z,18.98
2018-06-16T07:39:09.172Z,18.97
2018-06-16T07:41:38.690Z,18.97
2018-06-16T07:44:08.321Z,19.00
2018-06-16T07:46:37.779Z,19.00
2018-06-16T07:49:07.414Z,19.02
2018-06-16T07:51:37.133Z,19.03
2018-06-16T07:54:06.473Z,19.03
2018-06-16T07:56:36.379Z,19.25
2018-06-16T07:59:06.928Z,19.32
2018-06-16T08:01:36.473Z,19.35
2018-06-16T08:04:05.948Z,19.36
2018-06-16T08:06:35.414Z,19.40
2018-06-16T08:09:11.675Z,19.40
2018-06-16T08:11:41.652Z,19.44
2018-06-16T08:14:11.582Z,19.51
2018-06-16T08:16:41.414Z,19.56
2018-06-16T08:19:11.893Z,19.55
2018-06-16T08:21:41.453Z,19.54
2018-06-16T08:24:11.851Z,19.53
2018-06-16T08:26:42.107Z,19.58
2018-06-16T08:29:12.045Z,19.62
2018-06-16T08:31:41.505Z,19.63
2018-06-16T08:34:11.596Z,19.64
2018-06-16T08:36:41.172Z,19.64
2018-06-16T08:39:12.526Z,19.67
2018-06-16T08:41:42.259Z,19.70
2018-06-16T08:44:12.284Z,19.77
2018-06-16T08:46:42.968Z,19.82
2018-06-16T08:49:13.004Z,19.85
2018-06-16T08:51:43.477Z,19.90
2018-06-16T08:54:14.583Z,19.90
2018-06-16T08:56:44.445Z,19.97
2018-06-16T08:59:13.974Z,20.00
2018-06-16T09:01:43.223Z,20.00
2018-06-16T09:04:12.675Z,20.04
2018-06-16T09:06:42.236Z,20.06
2018-06-16T09:09:11.992Z,20.05
2018-06-16T09:11:41.710Z,20.08
2018-06-16T09:14:11.934Z,20.11
2018-06-16T09:16:41.205Z,20.14
2018-06-16T09:19:10.741Z,20.21
2018-06-16T09:21:40.366Z,20.25
2018-06-16T09:24:10.662Z,20.26
2018-06-16T09:26:40.845Z,20.26
2018-06-16T09:29:10.993Z,20.27
2018-06-16T09:31:40.375Z,20.28
2018-06-16T09:34:09.702Z,20.30
2018-06-16T09:36:39.121Z,20.33
2018-06-16T09:39:10.877Z,20.34
2018-06-16T09:41:41.180Z,20.37
2018-06-16T09:44:12.572Z,20.40
2018-06-16T09:46:42.937Z,20.41
2018-06-16T09:49:12.756Z,20.46
2018-06-16T09:51:43.164Z,20.37
2018-06-16T09:54:12.796Z,20.31
2018-06-16T09:56:42.674Z,20.31
2018-06-16T09:59:13.183Z,20.28
2018-06-16T10:01:42.944Z,20.24
2018-06-16T10:04:13.188Z,20.24
2018-06-16T10:06:43.020Z,20.23
2018-06-16T10:09:12.568Z,20.20
2018-06-16T10:11:42.116Z,20.24
2018-06-16T10:14:11.604Z,20.28
2018-06-16T10:16:42.252Z,20.27
2018-06-16T10:19:11.683Z,20.28
2018-06-16T10:21:41.055Z,20.30
2018-06-16T10:24:10.885Z,20.34
2018-06-16T10:26:40.458Z,20.34
2018-06-16T10:29:09.995Z,20.35
2018-06-16T10:31:39.253Z,20.34
2018-06-16T10:34:08.908Z,20.35
2018-06-16T10:36:39.224Z,20.34
2018-06-16T10:39:09.841Z,20.35
2018-06-16T10:41:43.682Z,20.33
2018-06-16T10:44:12.984Z,20.35
2018-06-16T10:46:43.025Z,20.36
2018-06-16T10:49:13.144Z,20.36
2018-06-16T10:51:43.241Z,20.36
2018-06-16T10:54:12.870Z,20.36
2018-06-16T10:56:42.539Z,20.43
2018-06-16T10:59:12.157Z,20.48
2018-06-16T11:01:42.052Z,20.54
2018-06-16T11:04:11.878Z,20.56
2018-06-16T11:06:41.441Z,20.59
2018-06-16T11:09:11.514Z,20.62
2018-06-16T11:11:41.185Z,20.63
2018-06-16T11:14:11.297Z,20.64
2018-06-16T11:16:40.827Z,20.64
2018-06-16T11:19:11.286Z,20.66
2018-06-16T11:21:40.668Z,20.67
2018-06-16T11:24:10.824Z,20.68
2018-06-16T11:26:41.659Z,20.71
2018-06-16T11:29:15.267Z,20.73
2018-06-16T11:31:45.125Z,20.78
2018-06-16T11:34:15.597Z,20.77
2018-06-16T11:36:45.679Z,20.80
2018-06-16T11:39:16.107Z,20.82
2018-06-16T11:41:45.800Z,20.85
2018-06-16T11:44:29.502Z,20.87
2018-06-16T11:47:04.324Z,20.88
2018-06-16T11:49:34.553Z,20.90
2018-06-16T11:52:03.964Z,20.92
2018-06-16T11:54:34.243Z,20.89
2018-06-16T11:57:03.681Z,20.88
2018-06-16T11:59:35.226Z,20.91
2018-06-16T12:02:04.870Z,20.90
2018-06-16T12:04:34.487Z,20.87
2018-06-16T12:07:03.990Z,20.89
2018-06-16T12:09:33.372Z,20.90
2018-06-16T12:12:02.784Z,20.89
2018-06-16T12:14:33.346Z,20.88
2018-06-16T12:17:03.430Z,20.88
2018-06-16T12:19:33.108Z,20.87
2018-06-16T12:22:02.873Z,20.82
2018-06-16T12:24:36.211Z,20.80
2018-06-16T12:27:07.003Z,20.78
2018-06-16T12:29:38.029Z,20.81
2018-06-16T12:32:07.884Z,20.83
2018-06-16T12:34:38.028Z,20.83
2018-06-16T12:37:08.765Z,20.85
2018-06-16T12:39:38.271Z,20.90
2018-06-16T12:42:25.989Z,20.89
2018-06-16T12:44:55.775Z,20.86
2018-06-16T12:47:25.290Z,20.85
2018-06-16T12:49:55.197Z,20.84
2018-06-16T12:52:24.698Z,20.83
2018-06-16T12:54:54.505Z,20.82
2018-06-16T12:57:24.272Z,20.80
2018-06-16T12:59:54.128Z,20.79
2018-06-16T13:02:23.873Z,20.79
2018-06-16T13:04:53.329Z,20.79
2018-06-16T13:07:22.734Z,20.78
2018-06-16T13:09:52.344Z,20.74
2018-06-16T13:12:23.441Z,20.77
2018-06-16T13:14:52.937Z,20.78
2018-06-16T13:17:22.370Z,20.79
2018-06-16T13:19:51.862Z,20.75
2018-06-16T13:22:22.300Z,20.76
2018-06-16T13:24:51.823Z,20.79
2018-06-16T13:27:21.268Z,20.78
2018-06-16T13:29:50.869Z,20.81
2018-06-16T13:32:20.545Z,20.80
2018-06-16T13:34:50.211Z,20.79
2018-06-16T13:37:19.711Z,20.78
2018-06-16T13:39:49.619Z,20.78
2018-06-16T13:42:18.994Z,20.75
2018-06-16T13:44:48.519Z,20.73
2018-06-16T13:47:18.607Z,20.73
2018-06-16T13:49:52.231Z,20.72
2018-06-16T13:52:22.426Z,20.70
2018-06-16T13:54:54.848Z,20.68
2018-06-16T13:57:24.455Z,20.66
2018-06-16T13:59:55.202Z,20.65
2018-06-16T14:02:24.700Z,20.64
2018-06-16T14:04:55.056Z,20.61
2018-06-16T14:07:24.565Z,20.62
2018-06-16T14:09:54.607Z,20.61
2018-06-16T14:12:25.017Z,20.61
2018-06-16T14:14:54.974Z,20.59
2018-06-16T14:17:24.461Z,20.53
2018-06-16T14:19:54.735Z,20.44
2018-06-16T14:22:24.247Z,20.39
2018-06-16T14:24:54.154Z,20.36
2018-06-16T14:27:23.787Z,20.41
2018-06-16T14:29:53.583Z,20.44
2018-06-16T14:32:23.004Z,20.43
2018-06-16T14:34:52.604Z,20.47
2018-06-16T14:37:22.154Z,20.58
2018-06-16T14:39:51.767Z,20.59
2018-06-16T14:42:21.311Z,20.56
2018-06-16T14:44:50.796Z,20.57
2018-06-16T14:47:20.294Z,20.54
2018-06-16T14:49:49.837Z,20.57
2018-06-16T14:52:19.444Z,20.55
2018-06-16T14:54:48.950Z,20.57
2018-06-16T14:57:18.520Z,20.60
2018-06-16T14:59:48.034Z,20.64
2018-06-16T15:02:17.615Z,20.66
2018-06-16T15:04:47.279Z,20.65
2018-06-16T15:07:17.092Z,20.65
2018-06-16T15:09:46.614Z,20.66
2018-06-16T15:12:16.122Z,20.67
2018-06-16T15:14:45.677Z,20.69
2018-06-16T15:17:15.125Z,20.69
2018-06-16T15:19:44.810Z,20.68
2018-06-16T15:22:15.229Z,20.68
2018-06-16T15:24:44.759Z,20.67
2018-06-16T15:27:14.278Z,20.68
2018-06-16T15:29:43.756Z,20.69
2018-06-16T15:32:13.249Z,20.70
2018-06-16T15:34:43.412Z,20.69
2018-06-16T15:37:13.000Z,20.67
2018-06-16T15:39:42.573Z,20.69
2018-06-16T15:42:12.078Z,20.70
2018-06-16T15:44:41.956Z,20.71
2018-06-16T15:47:12.587Z,20.70
2018-06-16T15:49:42.032Z,20.70
2018-06-16T15:52:11.781Z,20.72
2018-06-16T15:54:41.707Z,20.73
2018-06-16T15:57:11.341Z,20.72
2018-06-16T15:59:43.340Z,20.70
2018-06-16T16:02:13.996Z,20.71
2018-06-16T16:04:44.983Z,20.71
2018-06-16T16:07:14.675Z,20.71
2018-06-16T16:09:44.353Z,20.72
2018-06-16T16:12:15.416Z,20.77
2018-06-16T16:14:45.021Z,20.77
2018-06-16T16:17:16.071Z,20.70
2018-06-16T16:19:46.894Z,20.65
2018-06-16T16:22:16.688Z,20.61
2018-06-16T16:24:47.935Z,20.58
2018-06-16T16:27:17.745Z,20.57
2018-06-16T16:29:48.509Z,20.54
2018-06-16T16:32:27.338Z,20.53
2018-06-16T16:34:56.912Z,20.48
2018-06-16T16:37:26.431Z,20.46
2018-06-16T16:39:56.328Z,20.46
2018-06-16T16:42:25.952Z,20.46
2018-06-16T16:44:55.886Z,20.45
2018-06-16T16:47:25.471Z,20.43
2018-06-16T16:49:54.848Z,20.42
2018-06-16T16:52:24.240Z,20.42
2018-06-16T16:54:54.195Z,20.42
2018-06-16T16:57:24.923Z,20.40
2018-06-16T16:59:54.652Z,20.39
2018-06-16T17:02:24.963Z,20.37
2018-06-16T17:04:54.920Z,20.34
2018-06-16T17:07:24.599Z,20.33
2018-06-16T17:09:54.869Z,20.33
2018-06-16T17:12:24.588Z,20.33
2018-06-16T17:14:54.374Z,20.36
2018-06-16T17:17:23.767Z,20.38
2018-06-16T17:19:54.073Z,20.39
2018-06-16T17:22:23.567Z,20.36
2018-06-16T17:24:54.040Z,20.35
2018-06-16T17:27:23.609Z,20.34
2018-06-16T17:29:53.381Z,20.33
2018-06-16T17:32:22.939Z,20.33
2018-06-16T17:34:52.443Z,20.30
2018-06-16T17:37:24.000Z,20.32
2018-06-16T17:39:58.016Z,20.31
2018-06-16T17:42:27.569Z,20.30
2018-06-16T17:44:58.107Z,20.29
2018-06-16T17:49:52.636Z,20.28
2018-06-16T17:52:22.184Z,20.27
2018-06-16T17:54:52.339Z,20.27
2018-06-16T17:57:22.044Z,20.26
2018-06-16T17:59:53.843Z,20.25
2018-06-16T18:02:27.459Z,20.25
2018-06-16T18:04:57.164Z,20.23
2018-06-16T18:07:26.915Z,20.23
2018-06-16T18:09:56.608Z,20.22
2018-06-16T18:12:26.400Z,20.22
2018-06-16T18:14:56.149Z,20.21
2018-06-16T18:17:25.582Z,20.21
2018-06-16T18:19:55.034Z,20.20
2018-06-16T18:22:25.988Z,20.18
2018-06-16T18:24:55.696Z,20.16
2018-06-16T18:27:25.295Z,20.16
2018-06-16T18:29:55.068Z,20.15
2018-06-16T18:32:25.247Z,20.14
2018-06-16T18:34:54.788Z,20.13
2018-06-16T18:37:24.335Z,20.12
2018-06-16T18:39:54.322Z,20.12
2018-06-16T18:42:23.685Z,20.11
2018-06-16T18:44:53.155Z,20.11
2018-06-16T18:47:22.636Z,20.09
2018-06-16T18:49:52.293Z,20.08
2018-06-16T18:52:21.668Z,20.07
2018-06-16T18:54:51.965Z,20.07
2018-06-16T18:57:21.865Z,20.07
2018-06-16T18:59:51.213Z,20.03
2018-06-16T19:02:21.499Z,19.98
2018-06-16T19:04:51.692Z,19.96
2018-06-16T19:07:21.443Z,19.95
2018-06-16T19:09:51.059Z,19.94
2018-06-16T19:12:20.856Z,19.93
2018-06-16T19:14:50.814Z,19.90
2018-06-16T19:17:21.099Z,19.91
2018-06-16T19:19:51.466Z,19.93
2018-06-16T19:22:21.076Z,19.92
2018-06-16T19:24:50.544Z,19.90
2018-06-16T19:27:20.902Z,19.89
2018-06-16T19:29:51.597Z,19.87
2018-06-16T19:32:21.840Z,19.87
2018-06-16T19:34:51.532Z,19.86
2018-06-16T19:37:21.068Z,19.84
2018-06-16T19:39:50.707Z,19.81
2018-06-16T19:42:20.194Z,19.82
2018-06-16T19:44:49.781Z,19.78
2018-06-16T19:47:19.239Z,19.78
2018-06-16T19:51:02.792Z,19.76
2018-06-16T19:53:32.898Z,19.74
2018-06-16T19:56:02.302Z,19.74
2018-06-16T19:58:32.471Z,19.72
2018-06-16T20:01:02.029Z,19.70
2018-06-16T20:03:45.266Z,19.69
2018-06-16T20:06:15.149Z,19.67
2018-06-16T20:08:44.892Z,19.66
2018-06-16T20:11:14.396Z,19.65
2018-06-16T20:13:44.427Z,19.64
2018-06-16T20:16:18.608Z,19.63
2018-06-16T20:18:48.487Z,19.61
2018-06-16T20:21:18.785Z,19.61
2018-06-16T20:23:48.280Z,19.63
2018-06-16T20:26:18.382Z,19.63
2018-06-16T20:28:49.890Z,19.65
2018-06-16T20:31:20.062Z,19.67
2018-06-16T20:33:50.120Z,19.67
2018-06-16T20:36:19.674Z,19.67
2018-06-16T20:38:49.651Z,19.68
2018-06-16T20:41:19.584Z,19.68
2018-06-16T20:43:49.063Z,19.70
2018-06-16T20:46:18.520Z,19.70
2018-06-16T20:48:48.594Z,19.70
2018-06-16T20:51:18.486Z,19.70
2018-06-16T20:53:49.370Z,19.71
2018-06-16T20:56:19.408Z,19.72
2018-06-16T20:58:53.102Z,19.73
2018-06-16T21:01:22.826Z,19.72
2018-06-16T21:03:52.799Z,19.74
2018-06-16T21:06:22.298Z,19.74
2018-06-16T21:08:51.732Z,19.74
2018-06-16T21:11:21.327Z,19.75
2018-06-16T21:13:50.706Z,19.77
2018-06-16T21:16:20.037Z,19.76
2018-06-16T21:18:49.931Z,19.77
2018-06-16T21:21:19.528Z,19.78
2018-06-16T21:23:49.112Z,19.78
2018-06-16T21:26:18.632Z,19.78
2018-06-16T21:28:49.108Z,19.79
2018-06-16T21:31:19.032Z,19.78
2018-06-16T21:33:48.523Z,19.79
2018-06-16T21:36:18.096Z,19.79
2018-06-16T21:38:47.625Z,19.80
2018-06-16T21:41:17.081Z,19.80
2018-06-16T21:43:46.902Z,19.80
2018-06-16T21:46:16.879Z,19.80
2018-06-16T21:48:47.277Z,19.82
2018-06-16T21:51:20.687Z,19.82
2018-06-16T21:53:50.423Z,19.82
2018-06-16T21:56:20.319Z,19.83
2018-06-16T21:58:50.512Z,19.84
2018-06-16T22:01:20.155Z,19.84
2018-06-16T22:03:49.664Z,19.84
2018-06-16T22:06:19.518Z,19.84
2018-06-16T22:08:51.879Z,19.85
2018-06-16T22:11:21.323Z,19.86
2018-06-16T22:13:52.036Z,19.86
2018-06-16T22:16:21.551Z,19.87
2018-06-16T22:18:51.481Z,19.87
2018-06-16T22:21:21.168Z,19.87
2018-06-16T22:23:50.778Z,19.87
2018-06-16T22:26:20.402Z,19.88
2018-06-16T22:29:17.143Z,19.88
2018-06-16T22:31:47.196Z,19.85
2018-06-16T22:34:24.149Z,19.80
2018-06-16T22:36:55.728Z,19.76
2018-06-16T22:39:25.172Z,19.75
2018-06-16T22:41:55.383Z,19.73
2018-06-16T22:44:24.913Z,19.73
2018-06-16T22:46:54.422Z,19.72
2018-06-16T22:49:23.912Z,19.71
2018-06-16T22:51:53.332Z,19.69
2018-06-16T22:54:22.923Z,19.68
2018-06-16T22:56:52.323Z,19.67
2018-06-16T22:59:21.683Z,19.65
2018-06-16T23:01:51.185Z,19.63
2018-06-16T23:04:20.712Z,19.61
2018-06-16T23:06:50.544Z,19.61
2018-06-16T23:09:20.075Z,19.59
2018-06-16T23:11:49.629Z,19.58
2018-06-16T23:14:19.148Z,19.56
2018-06-16T23:16:48.612Z,19.56
2018-06-16T23:19:18.589Z,19.53
2018-06-16T23:21:48.197Z,19.52
2018-06-16T23:24:18.926Z,19.51
2018-06-16T23:26:49.235Z,19.50
2018-06-16T23:29:18.651Z,19.46
2018-06-16T23:31:48.130Z,19.46
2018-06-16T23:34:17.669Z,19.46
2018-06-16T23:36:47.708Z,19.44
2018-06-16T23:39:17.222Z,19.44
2018-06-16T23:41:46.758Z,19.43
2018-06-16T23:44:16.237Z,19.40
2018-06-16T23:46:45.622Z,19.39
2018-06-16T23:49:15.187Z,19.39
2018-06-16T23:51:44.710Z,19.38
2018-06-16T23:54:14.275Z,19.37
2018-06-16T23:56:43.798Z,19.36
2018-06-16T23:59:13.321Z,19.34
